Time,TemperatureF,DewpointF,PressureIn,WindDirection,WindDirectionDegrees,WindSpeedMPH,WindSpeedGustMPH,Humidity,HourlyPrecipIn,Conditions,Clouds,dailyrainin,SoftwareType,DateUTC
2013-01-14 00:00:00,51.8,48.5,29.73,SSE,157,0.0,-999.0,88,0.00,,,0.00,MetarLogicWeatherSta,2013-01-14 05:00:00,
2013-01-14 00:05:00,51.4,48.2,29.75,South,180,0.0,-999.0,88,0.00,,,0.00,MetarLogicWeatherSta,2013-01-14 05:05:00,
2013-01-14 00:10:00,51.0,47.5,29.75,South,180,0.0,-999.0,87,0.00,,,0.00,MetarLogicWeatherSta,2013-01-14 05:10:00,
2013-01-14 00:15:00,50.6,46.9,29.73,South,180,0.0,-999.0,87,0.00,,,0.00,MetarLogicWeatherSta,2013-01-14 05:15:00,
2013-01-14 00:20:00,50.1,46.8,29.75,South,180,0.0,-999.0,88,0.00,,,0.00,MetarLogicWeatherSta,2013-01-14 05:20:00,
2013-01-14 00:25:00,49.8,46.5,29.75,SSW,202,0.0,-999.0,88,0.00,,,0.00,MetarLogicWeatherSta,2013-01-14 05:25:00,
2013-01-14 00:30:00,49.4,46.5,29.76,South,180,0.0,-999.0,89,0.00,,,0.00,MetarLogicWeatherSta,2013-01-14 05:30:00,
2013-01-14 00:35:00,49.3,46.4,29.75,SSE,157,0.0,-999.0,89,0.00,,,0.00,MetarLogicWeatherSta,2013-01-14 05:35:00,
2013-01-14 00:40:00,49.0,46.5,29.75,SSE,157,0.0,-999.0,90,0.00,,,0.00,MetarLogicWeatherSta,2013-01-14 05:40:00,
2013-01-14 00:45:00,49.3,46.6,29.75,SSE,157,0.0,-999.0,90,0.00,,,0.00,MetarLogicWeatherSta,2013-01-14 05:45:00,
2013-01-14 00:50:00,49.2,46.5,29.75,SSE,157,0.0,-999.0,90,0.00,,,0.00,MetarLogicWeatherSta,2013-01-14 05:50:00,
2013-01-14 00:55:00,49.0,46.5,29.75,SE,135,0.0,-999.0,90,0.00,,,0.00,MetarLogicWeatherSta,2013-01-14 05:55:00,
2013-01-14 01:00:00,48.9,46.3,29.75,South,180,0.0,-999.0,90,0.00,,,0.00,MetarLogicWeatherSta,2013-01-14 06:00:00,
2013-01-14 01:05:00,48.9,46.4,29.75,South,180,0.0,-999.0,91,0.00,,,0.00,MetarLogicWeatherSta,2013-01-14 06:05:00,
2013-01-14 01:10:00,48.8,46.2,29.76,SSE,157,0.0,-999.0,90,0.00,,,0.00,MetarLogicWeatherSta,2013-01-14 06:10:00,
2013-01-14 01:15:00,48.7,46.3,29.76,SSE,157,0.0,-999.0,91,0.00,,,0.00,MetarLogicWeatherSta,2013-01-14 06:15:00,
2013-01-14 01:20:00,48.7,46.2,29.76,South,180,0.0,-999.0,91,0.00,,,0.00,MetarLogicWeatherSta,2013-01-14 06:20:00,
2013-01-14 01:25:00,48.9,46.6,29.75,SE,135,0.0,-999.0,91,0.00,,,0.00,MetarLogicWeatherSta,2013-01-14 06:25:00,
2013-01-14 01:30:00,48.5,46.2,29.76,South,180,0.0,-999.0,91,0.00,,,0.00,MetarLogicWeatherSta,2013-01-14 06:30:00,
2013-01-14 01:35:00,48.5,46.1,29.76,South,180,0.0,-999.0,91,0.00,,,0.00,MetarLogicWeatherSta,2013-01-14 06:35:00,
2013-01-14 01:40:00,48.4,46.0,29.76,South,180,0.0,-999.0,91,0.00,,,0.00,MetarLogicWeatherSta,2013-01-14 06:40:00,
2013-01-14 01:45:00,48.4,46.2,29.77,South,180,0.0,-999.0,91,0.00,,,0.00,MetarLogicWeatherSta,2013-01-14 06:45:00,
2013-01-14 01:50:00,48.6,46.6,29.77,SSE,157,0.0,-999.0,92,0.00,,,0.00,MetarLogicWeatherSta,2013-01-14 06:50:00,
2013-01-14 01:55:00,49.5,47.9,29.77,South,180,0.0,-999.0,94,0.00,,,0.00,MetarLogicWeatherSta,2013-01-14 06:55:00,
2013-01-14 02:00:00,49.7,47.8,29.77,South,180,0.0,-999.0,93,0.00,,,0.00,MetarLogicWeatherSta,2013-01-14 07:00:00,
2013-01-14 02:05:00,49.9,47.7,29.82,West,270,7.0,-999.0,92,0.00,,,0.00,MetarLogicWeatherSta,2013-01-14 07:05:00,
2013-01-14 02:10:00,48.8,45.0,29.84,SW,225,10.0,-999.0,86,0.00,,,0.00,MetarLogicWeatherSta,2013-01-14 07:10:00,
2013-01-14 02:15:00,47.9,44.0,29.85,WSW,247,7.0,-999.0,86,0.00,,,0.00,MetarLogicWeatherSta,2013-01-14 07:15:00,
2013-01-14 02:20:00,46.8,43.6,29.86,SSW,202,6.0,-999.0,88,0.00,,,0.00,MetarLogicWeatherSta,2013-01-14 07:20:00,
2013-01-14 02:25:00,46.3,43.1,29.86,WSW,247,6.0,-999.0,88,0.00,,,0.00,MetarLogicWeatherSta,2013-01-14 07:25:00,
2013-01-14 02:30:00,45.7,42.6,29.87,South,180,7.0,-999.0,88,0.00,,,0.00,MetarLogicWeatherSta,2013-01-14 07:30:00,
2013-01-14 02:35:00,45.4,42.5,29.88,SW,225,7.0,-999.0,89,0.00,,,0.00,MetarLogicWeatherSta,2013-01-14 07:35:00,
2013-01-14 02:40:00,44.9,42.0,29.88,WSW,247,6.0,-999.0,89,0.00,,,0.00,MetarLogicWeatherSta,2013-01-14 07:40:00,
2013-01-14 02:45:00,44.5,41.5,29.88,WSW,247,4.0,-999.0,88,0.00,,,0.00,MetarLogicWeatherSta,2013-01-14 07:45:00,
2013-01-14 02:50:00,44.4,41.3,29.89,West,270,4.0,-999.0,88,0.00,,,0.00,MetarLogicWeatherSta,2013-01-14 07:50:00,
2013-01-14 02:55:00,44.1,41.1,29.90,South,180,3.0,-999.0,89,0.00,,,0.00,MetarLogicWeatherSta,2013-01-14 07:55:00,
2013-01-14 03:00:00,43.9,41.0,29.90,SW,225,7.0,-999.0,89,0.00,,,0.00,MetarLogicWeatherSta,2013-01-14 08:00:00,
2013-01-14 03:05:00,43.5,40.8,29.91,SW,225,7.0,-999.0,90,0.00,,,0.00,MetarLogicWeatherSta,2013-01-14 08:05:00,
2013-01-14 03:10:00,43.4,40.9,29.92,SSW,202,4.0,-999.0,90,0.00,,,0.00,MetarLogicWeatherSta,2013-01-14 08:10:00,
2013-01-14 03:15:00,43.1,40.6,29.93,SW,225,6.0,-999.0,90,0.00,,,0.00,MetarLogicWeatherSta,2013-01-14 08:15:00,
2013-01-14 03:20:00,42.8,40.4,29.94,South,180,6.0,-999.0,91,0.00,,,0.00,MetarLogicWeatherSta,2013-01-14 08:20:00,
2013-01-14 03:25:00,43.0,40.5,29.94,SW,225,7.0,-999.0,90,0.00,,,0.00,MetarLogicWeatherSta,2013-01-14 08:25:00,
2013-01-14 03:30:00,42.4,39.8,29.95,SW,225,7.0,-999.0,90,0.00,,,0.00,MetarLogicWeatherSta,2013-01-14 08:30:00,
2013-01-14 03:35:00,42.5,39.5,29.96,SW,225,7.0,-999.0,88,0.00,,,0.00,MetarLogicWeatherSta,2013-01-14 08:35:00,
2013-01-14 03:40:00,42.4,38.9,29.95,SW,225,6.0,-999.0,87,0.00,,,0.00,MetarLogicWeatherSta,2013-01-14 08:40:00,
2013-01-14 03:45:00,42.0,38.7,29.95,SW,225,4.0,-999.0,88,0.00,,,0.00,MetarLogicWeatherSta,2013-01-14 08:45:00,
2013-01-14 03:50:00,42.1,38.8,29.95,South,180,3.0,-999.0,88,0.00,,,0.00,MetarLogicWeatherSta,2013-01-14 08:50:00,
2013-01-14 03:55:00,41.6,38.1,29.96,SW,225,4.0,-999.0,87,0.00,,,0.00,MetarLogicWeatherSta,2013-01-14 08:55:00,
2013-01-14 04:00:00,41.6,38.0,29.94,SSW,202,1.0,-999.0,86,0.00,,,0.00,MetarLogicWeatherSta,2013-01-14 09:00:00,
2013-01-14 04:05:00,41.6,38.1,29.95,SW,225,1.0,-999.0,87,0.00,,,0.00,MetarLogicWeatherSta,2013-01-14 09:05:00,
2013-01-14 04:10:00,41.3,38.1,29.96,SW,225,3.0,-999.0,88,0.00,,,0.00,MetarLogicWeatherSta,2013-01-14 09:10:00,
2013-01-14 04:15:00,41.3,38.4,29.96,SW,225,3.0,-999.0,89,0.00,,,0.00,MetarLogicWeatherSta,2013-01-14 09:15:00,
2013-01-14 04:20:00,41.1,38.4,29.96,SW,225,1.0,-999.0,89,0.00,,,0.00,MetarLogicWeatherSta,2013-01-14 09:20:00,
2013-01-14 04:25:00,41.2,38.3,29.96,SW,225,3.0,-999.0,89,0.00,,,0.00,MetarLogicWeatherSta,2013-01-14 09:25:00,
2013-01-14 04:30:00,41.1,38.3,29.96,SW,225,4.0,-999.0,89,0.00,,,0.00,MetarLogicWeatherSta,2013-01-14 09:30:00,
2013-01-14 04:35:00,41.1,38.3,29.96,South,180,4.0,-999.0,89,0.00,,,0.00,MetarLogicWeatherSta,2013-01-14 09:35:00,
2013-01-14 04:40:00,41.1,38.0,29.96,SSW,202,1.0,-999.0,88,0.00,,,0.00,MetarLogicWeatherSta,2013-01-14 09:40:00,
2013-01-14 04:45:00,41.2,37.8,29.97,SW,225,3.0,-999.0,87,0.00,,,0.00,MetarLogicWeatherSta,2013-01-14 09:45:00,
2013-01-14 04:50:00,41.1,37.9,29.98,SSW,202,4.0,-999.0,88,0.00,,,0.00,MetarLogicWeatherSta,2013-01-14 09:50:00,
2013-01-14 04:55:00,41.3,37.4,29.98,SSW,202,3.0,-999.0,85,0.00,,,0.00,MetarLogicWeatherSta,2013-01-14 09:55:00,
2013-01-14 05:00:00,40.9,36.9,29.98,SSW,202,3.0,-999.0,85,0.00,,,0.00,MetarLogicWeatherSta,2013-01-14 10:00:00,
2013-01-14 05:05:00,41.0,37.1,29.98,SSW,202,1.0,-999.0,85,0.00,,,0.00,MetarLogicWeatherSta,2013-01-14 10:05:00,
2013-01-14 05:10:00,40.8,36.9,29.99,SW,225,6.0,-999.0,85,0.00,,,0.00,MetarLogicWeatherSta,2013-01-14 10:10:00,
2013-01-14 05:15:00,40.7,36.6,29.99,SW,225,3.0,-999.0,85,0.00,,,0.00,MetarLogicWeatherSta,2013-01-14 10:15:00,
2013-01-14 05:20:00,40.5,36.3,29.99,SW,225,6.0,-999.0,84,0.00,,,0.00,MetarLogicWeatherSta,2013-01-14 10:20:00,
2013-01-14 05:25:00,40.3,36.2,30.00,SSW,202,1.0,-999.0,85,0.00,,,0.00,MetarLogicWeatherSta,2013-01-14 10:25:00,
2013-01-14 05:30:00,40.2,36.2,30.01,SW,225,4.0,-999.0,85,0.00,,,0.00,MetarLogicWeatherSta,2013-01-14 10:30:00,
2013-01-14 05:35:00,40.0,35.8,30.01,SW,225,3.0,-999.0,84,0.00,,,0.00,MetarLogicWeatherSta,2013-01-14 10:35:00,
2013-01-14 05:40:00,39.6,35.4,30.01,South,180,0.0,-999.0,84,0.00,,,0.00,MetarLogicWeatherSta,2013-01-14 10:40:00,
2013-01-14 05:45:00,39.4,35.4,30.03,WNW,292,1.0,-999.0,85,0.00,,,0.00,MetarLogicWeatherSta,2013-01-14 10:45:00,
2013-01-14 05:50:00,39.3,35.2,30.03,SW,225,1.0,-999.0,85,0.00,,,0.00,MetarLogicWeatherSta,2013-01-14 10:50:00,
2013-01-14 05:55:00,39.3,35.3,30.03,SSW,202,4.0,-999.0,85,0.00,,,0.00,MetarLogicWeatherSta,2013-01-14 10:55:00,
2013-01-14 06:00:00,39.0,35.0,30.03,SE,135,3.0,-999.0,85,0.00,,,0.00,MetarLogicWeatherSta,2013-01-14 11:00:00,
2013-01-14 06:05:00,39.1,34.8,30.04,SW,225,6.0,-999.0,84,0.00,,,0.00,MetarLogicWeatherSta,2013-01-14 11:05:00,
2013-01-14 06:10:00,39.2,34.8,30.05,WSW,247,4.0,-999.0,84,0.00,,,0.00,MetarLogicWeatherSta,2013-01-14 11:10:00,
2013-01-14 06:15:00,39.0,34.5,30.05,SSW,202,3.0,-999.0,83,0.00,,,0.00,MetarLogicWeatherSta,2013-01-14 11:15:00,
2013-01-14 06:20:00,38.9,34.6,30.05,SSW,202,4.0,-999.0,84,0.00,,,0.00,MetarLogicWeatherSta,2013-01-14 11:20:00,
2013-01-14 06:25:00,38.8,34.3,30.06,SSW,202,1.0,-999.0,83,0.00,,,0.00,MetarLogicWeatherSta,2013-01-14 11:25:00,
2013-01-14 06:30:00,38.6,34.3,30.07,SW,225,4.0,-999.0,84,0.00,,,0.00,MetarLogicWeatherSta,2013-01-14 11:30:00,
2013-01-14 06:35:00,38.5,34.4,30.07,South,180,4.0,-999.0,85,0.00,,,0.00,MetarLogicWeatherSta,2013-01-14 11:35:00,
2013-01-14 06:40:00,38.4,34.3,30.07,SSE,157,3.0,-999.0,85,0.00,,,0.00,MetarLogicWeatherSta,2013-01-14 11:40:00,
2013-01-14 06:45:00,38.4,34.3,30.08,SSW,202,3.0,-999.0,85,0.00,,,0.00,MetarLogicWeatherSta,2013-01-14 11:45:00,
2013-01-14 06:50:00,38.2,34.2,30.09,WNW,292,3.0,-999.0,85,0.00,,,0.00,MetarLogicWeatherSta,2013-01-14 11:50:00,
2013-01-14 06:55:00,38.2,34.3,30.09,South,180,1.0,-999.0,85,0.00,,,0.00,MetarLogicWeatherSta,2013-01-14 11:55:00,
2013-01-14 07:00:00,38.0,33.9,30.10,SW,225,3.0,-999.0,85,0.00,,,0.00,MetarLogicWeatherSta,2013-01-14 12:00:00,
2013-01-14 07:05:00,37.8,33.5,30.11,South,180,3.0,-999.0,84,0.00,,,0.00,MetarLogicWeatherSta,2013-01-14 12:05:00,
2013-01-14 07:10:00,37.5,33.4,30.11,ENE,67,1.0,-999.0,84,0.00,,,0.00,MetarLogicWeatherSta,2013-01-14 12:10:00,
2013-01-14 07:15:00,37.2,32.7,30.12,South,180,3.0,-999.0,83,0.00,,,0.00,MetarLogicWeatherSta,2013-01-14 12:15:00,
2013-01-14 07:20:00,37.2,32.6,30.12,SE,135,3.0,-999.0,83,0.00,,,0.00,MetarLogicWeatherSta,2013-01-14 12:20:00,
2013-01-14 07:25:00,36.9,32.2,30.13,WSW,247,6.0,-999.0,82,0.00,,,0.00,MetarLogicWeatherSta,2013-01-14 12:25:00,
2013-01-14 07:30:00,36.8,31.2,30.13,SW,225,3.0,-999.0,80,0.00,,,0.00,MetarLogicWeatherSta,2013-01-14 12:30:00,
2013-01-14 07:35:00,36.5,30.3,30.13,WSW,247,4.0,-999.0,78,0.00,,,0.00,MetarLogicWeatherSta,2013-01-14 12:35:00,
2013-01-14 07:40:00,36.7,30.5,30.14,South,180,3.0,-999.0,78,0.00,,,0.00,MetarLogicWeatherSta,2013-01-14 12:40:00,
2013-01-14 07:45:00,36.6,30.7,30.14,SSW,202,3.0,-999.0,79,0.00,,,0.00,MetarLogicWeatherSta,2013-01-14 12:45:00,
2013-01-14 07:50:00,36.4,30.1,30.14,SSW,202,4.0,-999.0,77,0.00,,,0.00,MetarLogicWeatherSta,2013-01-14 12:50:00,
2013-01-14 07:55:00,36.4,30.4,30.14,SSW,202,3.0,-999.0,78,0.00,,,0.00,MetarLogicWeatherSta,2013-01-14 12:55:00,
2013-01-14 08:00:00,36.4,30.4,30.15,WSW,247,4.0,-999.0,78,0.00,,,0.00,MetarLogicWeatherSta,2013-01-14 13:00:00,
2013-01-14 08:05:00,36.3,30.5,30.15,SSE,157,3.0,-999.0,79,0.00,,,0.00,MetarLogicWeatherSta,2013-01-14 13:05:00,
2013-01-14 08:10:00,36.3,29.2,30.15,SW,225,3.0,-999.0,75,0.00,,,0.00,MetarLogicWeatherSta,2013-01-14 13:10:00,
2013-01-14 08:15:00,36.1,29.0,30.16,SSW,202,3.0,-999.0,75,0.00,,,0.00,MetarLogicWeatherSta,2013-01-14 13:15:00,
2013-01-14 08:20:00,36.2,28.6,30.17,SW,225,6.0,-999.0,73,0.00,,,0.00,MetarLogicWeatherSta,2013-01-14 13:20:00,
2013-01-14 08:25:00,36.2,28.9,30.17,South,180,3.0,-999.0,74,0.00,,,0.00,MetarLogicWeatherSta,2013-01-14 13:25:00,
2013-01-14 08:30:00,35.9,28.5,30.17,South,180,4.0,-999.0,74,0.00,,,0.00,MetarLogicWeatherSta,2013-01-14 13:30:00,
2013-01-14 08:35:00,35.8,28.2,30.17,SW,225,4.0,-999.0,73,0.00,,,0.00,MetarLogicWeatherSta,2013-01-14 13:35:00,
2013-01-14 08:40:00,35.9,28.2,30.18,SSW,202,1.0,-999.0,73,0.00,,,0.00,MetarLogicWeatherSta,2013-01-14 13:40:00,
2013-01-14 08:45:00,35.8,28.4,30.18,SW,225,4.0,-999.0,74,0.00,,,0.00,MetarLogicWeatherSta,2013-01-14 13:45:00,
2013-01-14 08:50:00,35.7,28.3,30.19,SW,225,4.0,-999.0,74,0.00,,,0.00,MetarLogicWeatherSta,2013-01-14 13:50:00,
2013-01-14 08:55:00,35.7,28.5,30.19,SSW,202,3.0,-999.0,74,0.00,,,0.00,MetarLogicWeatherSta,2013-01-14 13:55:00,
2013-01-14 09:00:00,35.5,28.4,30.19,SSW,202,4.0,-999.0,74,0.00,,,0.00,MetarLogicWeatherSta,2013-01-14 14:00:00,
2013-01-14 09:05:00,35.5,27.9,30.19,SW,225,7.0,-999.0,73,0.00,,,0.00,MetarLogicWeatherSta,2013-01-14 14:05:00,
2013-01-14 09:10:00,35.4,27.8,30.19,SSW,202,3.0,-999.0,73,0.00,,,0.00,MetarLogicWeatherSta,2013-01-14 14:10:00,
2013-01-14 09:15:00,35.4,28.0,30.20,WSW,247,6.0,-999.0,74,0.00,,,0.00,MetarLogicWeatherSta,2013-01-14 14:15:00,
2013-01-14 09:20:00,35.2,28.0,30.20,SW,225,4.0,-999.0,74,0.00,,,0.00,MetarLogicWeatherSta,2013-01-14 14:20:00,
2013-01-14 09:25:00,34.8,28.3,30.21,WSW,247,3.0,-999.0,76,0.00,,,0.00,MetarLogicWeatherSta,2013-01-14 14:25:00,
2013-01-14 09:30:00,34.4,28.1,30.22,SW,225,3.0,-999.0,77,0.00,,,0.00,MetarLogicWeatherSta,2013-01-14 14:30:00,
2013-01-14 09:35:00,34.2,27.7,30.22,SW,225,4.0,-999.0,76,0.00,,,0.00,MetarLogicWeatherSta,2013-01-14 14:35:00,
2013-01-14 09:40:00,34.2,27.8,30.22,WSW,247,4.0,-999.0,77,0.00,,,0.00,MetarLogicWeatherSta,2013-01-14 14:40:00,
2013-01-14 09:45:00,33.9,27.3,30.23,SW,225,4.0,-999.0,76,0.00,,,0.00,MetarLogicWeatherSta,2013-01-14 14:45:00,
2013-01-14 09:50:00,33.9,27.3,30.24,SSW,202,4.0,-999.0,76,0.00,,,0.00,MetarLogicWeatherSta,2013-01-14 14:50:00,
2013-01-14 09:55:00,33.9,27.3,30.24,SW,225,4.0,-999.0,76,0.00,,,0.00,MetarLogicWeatherSta,2013-01-14 14:55:00,
2013-01-14 10:00:00,33.6,26.6,30.24,SW,225,3.0,-999.0,75,0.00,,,0.00,MetarLogicWeatherSta,2013-01-14 15:00:00,
2013-01-14 10:05:00,33.6,26.3,30.24,WNW,292,4.0,-999.0,74,0.00,,,0.00,MetarLogicWeatherSta,2013-01-14 15:05:00,
2013-01-14 10:10:00,33.5,26.3,30.25,SSW,202,3.0,-999.0,74,0.00,,,0.00,MetarLogicWeatherSta,2013-01-14 15:10:00,
2013-01-14 10:15:00,33.5,26.0,30.25,SW,225,3.0,-999.0,73,0.00,,,0.00,MetarLogicWeatherSta,2013-01-14 15:15:00,
2013-01-14 10:20:00,33.7,26.5,30.25,SW,225,6.0,-999.0,74,0.00,,,0.00,MetarLogicWeatherSta,2013-01-14 15:20:00,
2013-01-14 10:25:00,33.7,26.2,30.26,SW,225,6.0,-999.0,73,0.00,,,0.00,MetarLogicWeatherSta,2013-01-14 15:25:00,
2013-01-14 10:30:00,33.5,26.0,30.26,South,180,3.0,-999.0,73,0.00,,,0.00,MetarLogicWeatherSta,2013-01-14 15:30:00,
2013-01-14 10:35:00,33.5,26.1,30.26,SW,225,6.0,-999.0,74,0.00,,,0.00,MetarLogicWeatherSta,2013-01-14 15:35:00,
2013-01-14 10:40:00,33.5,26.3,30.26,WSW,247,6.0,-999.0,74,0.00,,,0.00,MetarLogicWeatherSta,2013-01-14 15:40:00,
2013-01-14 10:45:00,33.1,25.5,30.27,SSW,202,6.0,-999.0,73,0.00,,,0.00,MetarLogicWeatherSta,2013-01-14 15:45:00,
2013-01-14 10:50:00,33.2,25.4,30.27,WSW,247,6.0,-999.0,72,0.00,,,0.00,MetarLogicWeatherSta,2013-01-14 15:50:00,
2013-01-14 10:55:00,33.1,24.5,30.27,WSW,247,4.0,-999.0,70,0.00,,,0.00,MetarLogicWeatherSta,2013-01-14 15:55:00,
2013-01-14 11:00:00,33.0,24.8,30.28,WSW,247,4.0,-999.0,71,0.00,,,0.00,MetarLogicWeatherSta,2013-01-14 16:00:00,
2013-01-14 11:05:00,32.9,25.0,30.28,WNW,292,3.0,-999.0,72,0.00,,,0.00,MetarLogicWeatherSta,2013-01-14 16:05:00,
2013-01-14 11:10:00,32.7,24.4,30.28,SW,225,3.0,-999.0,71,0.00,,,0.00,MetarLogicWeatherSta,2013-01-14 16:10:00,
2013-01-14 11:15:00,32.6,24.8,30.28,WNW,292,1.0,-999.0,72,0.00,,,0.00,MetarLogicWeatherSta,2013-01-14 16:15:00,
2013-01-14 11:20:00,32.6,24.5,30.28,SW,225,4.0,-999.0,71,0.00,,,0.00,MetarLogicWeatherSta,2013-01-14 16:20:00,
2013-01-14 11:25:00,32.6,24.3,30.28,SSW,202,4.0,-999.0,71,0.00,,,0.00,MetarLogicWeatherSta,2013-01-14 16:25:00,
2013-01-14 11:30:00,32.4,24.4,30.28,SSW,202,4.0,-999.0,72,0.00,,,0.00,MetarLogicWeatherSta,2013-01-14 16:30:00,
2013-01-14 11:35:00,32.4,24.4,30.28,SW,225,9.0,-999.0,72,0.00,,,0.00,MetarLogicWeatherSta,2013-01-14 16:35:00,
2013-01-14 11:40:00,31.9,23.8,30.28,SW,225,3.0,-999.0,71,0.00,,,0.00,MetarLogicWeatherSta,2013-01-14 16:40:00,
2013-01-14 11:45:00,32.1,23.8,30.28,WSW,247,6.0,-999.0,71,0.00,,,0.00,MetarLogicWeatherSta,2013-01-14 16:45:00,
2013-01-14 11:50:00,32.1,23.9,30.28,WSW,247,1.0,-999.0,71,0.00,,,0.00,MetarLogicWeatherSta,2013-01-14 16:50:00,
2013-01-14 11:55:00,32.2,23.7,30.28,West,270,4.0,-999.0,70,0.00,,,0.00,MetarLogicWeatherSta,2013-01-14 16:55:00,
2013-01-14 12:00:00,32.3,23.7,30.27,SW,225,9.0,-999.0,70,0.00,,,0.00,MetarLogicWeatherSta,2013-01-14 17:00:00,
2013-01-14 12:05:00,32.3,23.5,30.28,SSW,202,1.0,-999.0,69,0.00,,,0.00,MetarLogicWeatherSta,2013-01-14 17:05:00,
2013-01-14 12:10:00,32.3,23.4,30.27,SW,225,3.0,-999.0,69,0.00,,,0.00,MetarLogicWeatherSta,2013-01-14 17:10:00,
2013-01-14 12:15:00,32.2,23.1,30.28,WSW,247,3.0,-999.0,68,0.00,,,0.00,MetarLogicWeatherSta,2013-01-14 17:15:00,
2013-01-14 12:20:00,32.3,23.4,30.28,SW,225,6.0,-999.0,69,0.00,,,0.00,MetarLogicWeatherSta,2013-01-14 17:20:00,
2013-01-14 12:25:00,32.3,23.6,30.28,WNW,292,3.0,-999.0,70,0.00,,,0.00,MetarLogicWeatherSta,2013-01-14 17:25:00,
2013-01-14 12:30:00,32.4,23.8,30.28,SW,225,3.0,-999.0,70,0.00,,,0.00,MetarLogicWeatherSta,2013-01-14 17:30:00,
2013-01-14 12:35:00,32.5,23.7,30.27,SW,225,4.0,-999.0,69,0.00,,,0.00,MetarLogicWeatherSta,2013-01-14 17:35:00,
2013-01-14 12:40:00,32.4,23.9,30.27,SW,225,1.0,-999.0,70,0.00,,,0.00,MetarLogicWeatherSta,2013-01-14 17:40:00,
2013-01-14 12:45:00,32.3,23.9,30.27,SSW,202,0.0,-999.0,70,0.00,,,0.00,MetarLogicWeatherSta,2013-01-14 17:45:00,
2013-01-14 12:50:00,32.5,24.2,30.26,SW,225,6.0,-999.0,71,0.00,,,0.00,MetarLogicWeatherSta,2013-01-14 17:50:00,
2013-01-14 12:55:00,32.5,24.2,30.26,SSW,202,1.0,-999.0,71,0.00,,,0.00,MetarLogicWeatherSta,2013-01-14 17:55:00,
2013-01-14 13:00:00,32.5,24.3,30.26,SSW,202,1.0,-999.0,71,0.00,,,0.00,MetarLogicWeatherSta,2013-01-14 18:00:00,
2013-01-14 13:05:00,32.6,24.1,30.26,SW,225,1.0,-999.0,70,0.00,,,0.00,MetarLogicWeatherSta,2013-01-14 18:05:00,
2013-01-14 13:10:00,32.8,24.5,30.27,SSW,202,1.0,-999.0,71,0.00,,,0.00,MetarLogicWeatherSta,2013-01-14 18:10:00,
2013-01-14 13:15:00,33.2,24.5,30.27,South,180,3.0,-999.0,69,0.00,,,0.00,MetarLogicWeatherSta,2013-01-14 18:15:00,
2013-01-14 13:20:00,33.0,23.4,30.27,SSW,202,1.0,-999.0,67,0.00,,,0.00,MetarLogicWeatherSta,2013-01-14 18:20:00,
2013-01-14 13:25:00,32.8,23.8,30.27,South,180,4.0,-999.0,69,0.00,,,0.00,MetarLogicWeatherSta,2013-01-14 18:25:00,
2013-01-14 13:30:00,32.7,23.0,30.27,WSW,247,3.0,-999.0,67,0.00,,,0.00,MetarLogicWeatherSta,2013-01-14 18:30:00,
2013-01-14 13:35:00,32.8,23.4,30.28,SW,225,4.0,-999.0,68,0.00,,,0.00,MetarLogicWeatherSta,2013-01-14 18:35:00,
2013-01-14 13:40:00,32.9,23.4,30.28,SW,225,1.0,-999.0,67,0.00,,,0.00,MetarLogicWeatherSta,2013-01-14 18:40:00,
2013-01-14 13:45:00,33.0,23.5,30.28,SSW,202,0.0,-999.0,67,0.00,,,0.00,MetarLogicWeatherSta,2013-01-14 18:45:00,
2013-01-14 13:50:00,33.1,23.2,30.28,SW,225,6.0,-999.0,66,0.00,,,0.00,MetarLogicWeatherSta,2013-01-14 18:50:00,
2013-01-14 13:55:00,33.0,22.6,30.28,SSW,202,4.0,-999.0,65,0.00,,,0.00,MetarLogicWeatherSta,2013-01-14 18:55:00,
2013-01-14 14:00:00,32.6,22.4,30.28,SSW,202,3.0,-999.0,65,0.00,,,0.00,MetarLogicWeatherSta,2013-01-14 19:00:00,
2013-01-14 14:05:00,32.7,22.6,30.28,SW,225,3.0,-999.0,66,0.00,,,0.00,MetarLogicWeatherSta,2013-01-14 19:05:00,
2013-01-14 14:10:00,32.6,22.3,30.28,SSW,202,6.0,-999.0,65,0.00,,,0.00,MetarLogicWeatherSta,2013-01-14 19:10:00,
2013-01-14 14:15:00,32.6,22.2,30.28,South,180,1.0,-999.0,65,0.00,,,0.00,MetarLogicWeatherSta,2013-01-14 19:15:00,
2013-01-14 14:20:00,32.7,22.4,30.28,SSW,202,0.0,-999.0,65,0.00,,,0.00,MetarLogicWeatherSta,2013-01-14 19:20:00,
2013-01-14 14:25:00,32.8,22.0,30.29,SW,225,1.0,-999.0,64,0.00,,,0.00,MetarLogicWeatherSta,2013-01-14 19:25:00,
2013-01-14 14:30:00,32.8,22.0,30.29,SSW,202,3.0,-999.0,64,0.00,,,0.00,MetarLogicWeatherSta,2013-01-14 19:30:00,
2013-01-14 14:35:00,32.8,22.1,30.29,SW,225,3.0,-999.0,64,0.00,,,0.00,MetarLogicWeatherSta,2013-01-14 19:35:00,
2013-01-14 14:40:00,32.6,21.5,30.28,SW,225,3.0,-999.0,63,0.00,,,0.00,MetarLogicWeatherSta,2013-01-14 19:40:00,
2013-01-14 14:45:00,32.4,21.1,30.28,SW,225,3.0,-999.0,62,0.00,,,0.00,MetarLogicWeatherSta,2013-01-14 19:45:00,
2013-01-14 14:50:00,32.6,21.8,30.28,SSW,202,4.0,-999.0,64,0.00,,,0.00,MetarLogicWeatherSta,2013-01-14 19:50:00,
2013-01-14 14:55:00,32.5,21.7,30.28,SSW,202,1.0,-999.0,64,0.00,,,0.00,MetarLogicWeatherSta,2013-01-14 19:55:00,
2013-01-14 15:00:00,32.7,22.3,30.28,SSW,202,3.0,-999.0,65,0.00,,,0.00,MetarLogicWeatherSta,2013-01-14 20:00:00,
2013-01-14 15:05:00,32.5,21.4,30.28,West,270,3.0,-999.0,63,0.00,,,0.00,MetarLogicWeatherSta,2013-01-14 20:05:00,
2013-01-14 15:10:00,32.3,21.5,30.28,South,180,1.0,-999.0,64,0.00,,,0.00,MetarLogicWeatherSta,2013-01-14 20:10:00,
2013-01-14 15:15:00,32.5,22.2,30.28,SW,225,1.0,-999.0,65,0.00,,,0.00,MetarLogicWeatherSta,2013-01-14 20:15:00,
2013-01-14 15:20:00,32.3,22.0,30.28,SSW,202,1.0,-999.0,65,0.00,,,0.00,MetarLogicWeatherSta,2013-01-14 20:20:00,
2013-01-14 15:25:00,32.2,21.7,30.28,SW,225,3.0,-999.0,64,0.00,,,0.00,MetarLogicWeatherSta,2013-01-14 20:25:00,
2013-01-14 15:30:00,32.1,21.5,30.28,South,180,0.0,-999.0,64,0.00,,,0.00,MetarLogicWeatherSta,2013-01-14 20:30:00,
2013-01-14 15:35:00,32.2,22.3,30.28,SSW,202,3.0,-999.0,66,0.00,,,0.00,MetarLogicWeatherSta,2013-01-14 20:35:00,
2013-01-14 15:40:00,31.9,21.9,30.28,SW,225,1.0,-999.0,66,0.00,,,0.00,MetarLogicWeatherSta,2013-01-14 20:40:00,
2013-01-14 15:45:00,31.7,21.6,30.28,SW,225,4.0,-999.0,66,0.00,,,0.00,MetarLogicWeatherSta,2013-01-14 20:45:00,
2013-01-14 15:50:00,31.8,22.0,30.28,WSW,247,3.0,-999.0,66,0.00,,,0.00,MetarLogicWeatherSta,2013-01-14 20:50:00,
2013-01-14 15:55:00,31.8,21.5,30.29,South,180,1.0,-999.0,65,0.00,,,0.00,MetarLogicWeatherSta,2013-01-14 20:55:00,
2013-01-14 16:00:00,31.4,21.3,30.29,SW,225,4.0,-999.0,66,0.00,,,0.00,MetarLogicWeatherSta,2013-01-14 21:00:00,
2013-01-14 16:05:00,31.7,22.2,30.29,SW,225,1.0,-999.0,67,0.00,,,0.00,MetarLogicWeatherSta,2013-01-14 21:05:00,
2013-01-14 16:10:00,31.7,21.8,30.29,SSW,202,1.0,-999.0,66,0.00,,,0.00,MetarLogicWeatherSta,2013-01-14 21:10:00,
2013-01-14 16:15:00,31.4,21.8,30.30,SW,225,3.0,-999.0,67,0.00,,,0.00,MetarLogicWeatherSta,2013-01-14 21:15:00,
2013-01-14 16:20:00,31.4,22.6,30.31,SW,225,6.0,-999.0,69,0.00,,,0.00,MetarLogicWeatherSta,2013-01-14 21:20:00,
2013-01-14 16:25:00,31.3,22.8,30.30,SW,225,4.0,-999.0,70,0.00,,,0.00,MetarLogicWeatherSta,2013-01-14 21:25:00,
2013-01-14 16:30:00,31.1,22.8,30.31,SSW,202,3.0,-999.0,71,0.00,,,0.00,MetarLogicWeatherSta,2013-01-14 21:30:00,
2013-01-14 16:35:00,30.9,22.8,30.31,SW,225,3.0,-999.0,71,0.00,,,0.00,MetarLogicWeatherSta,2013-01-14 21:35:00,
2013-01-14 16:40:00,30.5,22.7,30.31,SSW,202,1.0,-999.0,72,0.00,,,0.00,MetarLogicWeatherSta,2013-01-14 21:40:00,
2013-01-14 16:45:00,30.8,22.7,30.32,SSW,202,0.0,-999.0,71,0.00,,,0.00,MetarLogicWeatherSta,2013-01-14 21:45:00,
2013-01-14 16:50:00,30.6,23.2,30.32,SSW,202,1.0,-999.0,73,0.00,,,0.00,MetarLogicWeatherSta,2013-01-14 21:50:00,
2013-01-14 16:55:00,30.6,23.0,30.32,SSW,202,3.0,-999.0,73,0.00,,,0.00,MetarLogicWeatherSta,2013-01-14 21:55:00,
2013-01-14 17:00:00,30.5,23.0,30.32,SSW,202,1.0,-999.0,73,0.00,,,0.00,MetarLogicWeatherSta,2013-01-14 22:00:00,
2013-01-14 17:05:00,30.3,22.9,30.32,SW,225,1.0,-999.0,73,0.00,,,0.00,MetarLogicWeatherSta,2013-01-14 22:05:00,
2013-01-14 17:10:00,30.3,22.9,30.32,South,180,0.0,-999.0,73,0.00,,,0.00,MetarLogicWeatherSta,2013-01-14 22:10:00,
2013-01-14 17:15:00,30.1,22.8,30.32,SW,225,3.0,-999.0,73,0.00,,,0.00,MetarLogicWeatherSta,2013-01-14 22:15:00,
2013-01-14 17:20:00,30.2,22.9,30.33,SW,225,1.0,-999.0,74,0.00,,,0.00,MetarLogicWeatherSta,2013-01-14 22:20:00,
2013-01-14 17:25:00,30.2,23.0,30.33,SSW,202,3.0,-999.0,74,0.00,,,0.00,MetarLogicWeatherSta,2013-01-14 22:25:00,
2013-01-14 17:30:00,30.1,23.0,30.34,SW,225,1.0,-999.0,74,0.00,,,0.00,MetarLogicWeatherSta,2013-01-14 22:30:00,
2013-01-14 17:35:00,30.0,23.0,30.34,South,180,0.0,-999.0,75,0.00,,,0.00,MetarLogicWeatherSta,2013-01-14 22:35:00,
2013-01-14 17:40:00,30.0,23.3,30.35,SSW,202,1.0,-999.0,76,0.00,,,0.00,MetarLogicWeatherSta,2013-01-14 22:40:00,
2013-01-14 17:45:00,29.9,23.2,30.34,SSW,202,1.0,-999.0,76,0.00,,,0.00,MetarLogicWeatherSta,2013-01-14 22:45:00,
2013-01-14 17:50:00,29.9,23.3,30.35,SSW,202,0.0,-999.0,76,0.00,,,0.00,MetarLogicWeatherSta,2013-01-14 22:50:00,
2013-01-14 17:55:00,30.0,23.9,30.35,SW,225,1.0,-999.0,77,0.00,,,0.00,MetarLogicWeatherSta,2013-01-14 22:55:00,
2013-01-14 18:00:00,29.8,23.2,30.35,SSW,202,1.0,-999.0,76,0.00,,,0.00,MetarLogicWeatherSta,2013-01-14 23:00:00,
2013-01-14 18:05:00,29.7,23.1,30.34,SSW,202,1.0,-999.0,76,0.00,,,0.00,MetarLogicWeatherSta,2013-01-14 23:05:00,
2013-01-14 18:10:00,29.6,23.2,30.34,SSW,202,4.0,-999.0,76,0.00,,,0.00,MetarLogicWeatherSta,2013-01-14 23:10:00,
2013-01-14 18:15:00,29.8,23.7,30.33,WSW,247,3.0,-999.0,78,0.00,,,0.00,MetarLogicWeatherSta,2013-01-14 23:15:00,
2013-01-14 18:20:00,29.3,23.3,30.32,SW,225,3.0,-999.0,78,0.00,,,0.00,MetarLogicWeatherSta,2013-01-14 23:20:00,
2013-01-14 18:25:00,29.1,23.2,30.33,West,270,4.0,-999.0,78,0.00,,,0.00,MetarLogicWeatherSta,2013-01-14 23:25:00,
2013-01-14 18:30:00,29.3,23.5,30.34,SW,225,4.0,-999.0,78,0.00,,,0.00,MetarLogicWeatherSta,2013-01-14 23:30:00,
2013-01-14 18:35:00,29.2,23.5,30.35,SW,225,7.0,-999.0,79,0.00,,,0.00,MetarLogicWeatherSta,2013-01-14 23:35:00,
2013-01-14 18:40:00,29.2,23.3,30.35,SW,225,1.0,-999.0,78,0.00,,,0.00,MetarLogicWeatherSta,2013-01-14 23:40:00,
2013-01-14 18:45:00,29.2,23.3,30.35,SW,225,3.0,-999.0,78,0.00,,,0.00,MetarLogicWeatherSta,2013-01-14 23:45:00,
2013-01-14 18:50:00,29.1,23.2,30.34,SSW,202,1.0,-999.0,78,0.00,,,0.00,MetarLogicWeatherSta,2013-01-14 23:50:00,
2013-01-14 18:55:00,29.2,23.2,30.36,SSW,202,4.0,-999.0,78,0.00,,,0.00,MetarLogicWeatherSta,2013-01-14 23:55:00,
2013-01-14 19:00:00,29.3,23.3,30.36,SW,225,3.0,-999.0,78,0.00,,,0.00,MetarLogicWeatherSta,2013-01-15 00:00:00,
2013-01-14 19:05:00,29.2,23.1,30.37,SW,225,1.0,-999.0,77,0.00,,,0.00,MetarLogicWeatherSta,2013-01-15 00:05:00,
2013-01-14 19:10:00,29.2,22.9,30.37,South,180,1.0,-999.0,77,0.00,,,0.00,MetarLogicWeatherSta,2013-01-15 00:10:00,
2013-01-14 19:15:00,29.1,22.9,30.37,South,180,3.0,-999.0,77,0.00,,,0.00,MetarLogicWeatherSta,2013-01-15 00:15:00,
2013-01-14 19:20:00,29.2,22.9,30.37,SW,225,3.0,-999.0,77,0.00,,,0.00,MetarLogicWeatherSta,2013-01-15 00:20:00,
2013-01-14 19:25:00,29.2,22.6,30.37,SSW,202,3.0,-999.0,76,0.00,,,0.00,MetarLogicWeatherSta,2013-01-15 00:25:00,
2013-01-14 19:30:00,29.1,22.3,30.36,SW,225,1.0,-999.0,75,0.00,,,0.00,MetarLogicWeatherSta,2013-01-15 00:30:00,
2013-01-14 19:35:00,29.1,21.8,30.35,NW,315,3.0,-999.0,73,0.00,,,0.00,MetarLogicWeatherSta,2013-01-15 00:35:00,
2013-01-14 19:40:00,29.2,22.0,30.34,West,270,3.0,-999.0,74,0.00,,,0.00,MetarLogicWeatherSta,2013-01-15 00:40:00,
2013-01-14 19:45:00,29.1,21.6,30.33,SW,225,1.0,-999.0,73,0.00,,,0.00,MetarLogicWeatherSta,2013-01-15 00:45:00,
2013-01-14 19:50:00,29.1,21.7,30.32,SW,225,3.0,-999.0,73,0.00,,,0.00,MetarLogicWeatherSta,2013-01-15 00:50:00,
2013-01-14 19:55:00,28.8,21.2,30.32,SSW,202,3.0,-999.0,72,0.00,,,0.00,MetarLogicWeatherSta,2013-01-15 00:55:00,
2013-01-14 20:00:00,28.8,21.4,30.33,SW,225,1.0,-999.0,73,0.00,,,0.00,MetarLogicWeatherSta,2013-01-15 01:00:00,
2013-01-14 20:05:00,28.6,21.3,30.33,SW,225,4.0,-999.0,73,0.00,,,0.00,MetarLogicWeatherSta,2013-01-15 01:05:00,
2013-01-14 20:10:00,28.7,21.2,30.33,SW,225,3.0,-999.0,73,0.00,,,0.00,MetarLogicWeatherSta,2013-01-15 01:10:00,
2013-01-14 20:15:00,28.8,21.4,30.33,SSW,202,3.0,-999.0,73,0.00,,,0.00,MetarLogicWeatherSta,2013-01-15 01:15:00,
2013-01-14 20:21:00,28.7,21.3,30.34,SSW,202,0.0,-999.0,73,0.00,,,0.00,MetarLogicWeatherSta,2013-01-15 01:21:00,
2013-01-14 20:26:00,28.9,21.5,30.33,SW,225,1.0,-999.0,73,0.00,,,0.00,MetarLogicWeatherSta,2013-01-15 01:26:00,
2013-01-14 20:31:00,28.6,21.0,30.33,South,180,0.0,-999.0,72,0.00,,,0.00,MetarLogicWeatherSta,2013-01-15 01:31:00,
2013-01-14 20:36:00,28.6,21.0,30.33,South,180,1.0,-999.0,73,0.00,,,0.00,MetarLogicWeatherSta,2013-01-15 01:36:00,
2013-01-14 20:41:00,28.5,20.9,30.34,SW,225,3.0,-999.0,72,0.00,,,0.00,MetarLogicWeatherSta,2013-01-15 01:41:00,
2013-01-14 20:46:00,28.5,20.7,30.34,SW,225,3.0,-999.0,72,0.00,,,0.00,MetarLogicWeatherSta,2013-01-15 01:46:00,
2013-01-14 20:51:00,28.6,20.6,30.33,SW,225,3.0,-999.0,71,0.00,,,0.00,MetarLogicWeatherSta,2013-01-15 01:51:00,
2013-01-14 20:56:00,28.3,20.7,30.34,SW,225,4.0,-999.0,72,0.00,,,0.00,MetarLogicWeatherSta,2013-01-15 01:56:00,
2013-01-14 21:01:00,28.6,21.0,30.34,SW,225,1.0,-999.0,72,0.00,,,0.00,MetarLogicWeatherSta,2013-01-15 02:01:00,
2013-01-14 21:06:00,28.5,21.1,30.35,SSW,202,1.0,-999.0,73,0.00,,,0.00,MetarLogicWeatherSta,2013-01-15 02:06:00,
2013-01-14 21:11:00,28.5,21.1,30.34,South,180,1.0,-999.0,73,0.00,,,0.00,MetarLogicWeatherSta,2013-01-15 02:11:00,
2013-01-14 21:16:00,28.3,20.8,30.35,SSW,202,0.0,-999.0,73,0.00,,,0.00,MetarLogicWeatherSta,2013-01-15 02:16:00,
2013-01-14 21:21:00,28.2,21.0,30.35,South,180,1.0,-999.0,74,0.00,,,0.00,MetarLogicWeatherSta,2013-01-15 02:21:00,
2013-01-14 21:26:00,28.1,21.0,30.36,South,180,1.0,-999.0,74,0.00,,,0.00,MetarLogicWeatherSta,2013-01-15 02:26:00,
2013-01-14 21:31:00,28.0,20.7,30.37,SSW,202,1.0,-999.0,73,0.00,,,0.00,MetarLogicWeatherSta,2013-01-15 02:31:00,
2013-01-14 21:36:00,28.1,21.1,30.36,South,180,0.0,-999.0,74,0.00,,,0.00,MetarLogicWeatherSta,2013-01-15 02:36:00,
2013-01-14 21:41:00,28.1,21.0,30.36,South,180,0.0,-999.0,74,0.00,,,0.00,MetarLogicWeatherSta,2013-01-15 02:41:00,
2013-01-14 21:46:00,27.9,20.6,30.35,SW,225,1.0,-999.0,73,0.00,,,0.00,MetarLogicWeatherSta,2013-01-15 02:46:00,
2013-01-14 21:51:00,28.1,20.8,30.36,South,180,0.0,-999.0,73,0.00,,,0.00,MetarLogicWeatherSta,2013-01-15 02:51:00,
2013-01-14 21:56:00,27.9,20.6,30.36,South,180,0.0,-999.0,73,0.00,,,0.00,MetarLogicWeatherSta,2013-01-15 02:56:00,
2013-01-14 22:01:00,28.0,20.9,30.35,SSW,202,0.0,-999.0,74,0.00,,,0.00,MetarLogicWeatherSta,2013-01-15 03:01:00,
2013-01-14 22:06:00,28.0,20.8,30.34,South,180,0.0,-999.0,74,0.00,,,0.00,MetarLogicWeatherSta,2013-01-15 03:06:00,
2013-01-14 22:11:00,28.0,20.8,30.34,SSW,202,0.0,-999.0,74,0.00,,,0.00,MetarLogicWeatherSta,2013-01-15 03:11:00,
2013-01-14 22:16:00,28.0,20.8,30.34,SSW,202,0.0,-999.0,74,0.00,,,0.00,MetarLogicWeatherSta,2013-01-15 03:16:00,
2013-01-14 22:21:00,28.1,20.8,30.34,South,180,0.0,-999.0,73,0.00,,,0.00,MetarLogicWeatherSta,2013-01-15 03:21:00,
2013-01-14 22:26:00,28.0,20.8,30.36,SSW,202,1.0,-999.0,74,0.00,,,0.00,MetarLogicWeatherSta,2013-01-15 03:26:00,
2013-01-14 22:31:00,28.1,21.0,30.36,SSW,202,1.0,-999.0,74,0.00,,,0.00,MetarLogicWeatherSta,2013-01-15 03:31:00,
2013-01-14 22:36:00,28.1,20.9,30.35,South,180,0.0,-999.0,74,0.00,,,0.00,MetarLogicWeatherSta,2013-01-15 03:36:00,
2013-01-14 22:41:00,28.1,20.8,30.34,SSW,202,1.0,-999.0,73,0.00,,,0.00,MetarLogicWeatherSta,2013-01-15 03:41:00,
2013-01-14 22:46:00,27.8,20.6,30.35,SSW,202,0.0,-999.0,73,0.00,,,0.00,MetarLogicWeatherSta,2013-01-15 03:46:00,
2013-01-14 22:51:00,27.8,20.5,30.34,South,180,0.0,-999.0,73,0.00,,,0.00,MetarLogicWeatherSta,2013-01-15 03:51:00,
2013-01-14 22:56:00,27.8,20.7,30.34,South,180,0.0,-999.0,74,0.00,,,0.00,MetarLogicWeatherSta,2013-01-15 03:56:00,
2013-01-14 23:01:00,28.0,20.6,30.34,SSW,202,0.0,-999.0,73,0.00,,,0.00,MetarLogicWeatherSta,2013-01-15 04:01:00,
2013-01-14 23:06:00,28.0,20.8,30.33,South,180,0.0,-999.0,74,0.00,,,0.00,MetarLogicWeatherSta,2013-01-15 04:06:00,
2013-01-14 23:11:00,27.7,20.4,30.33,SSW,202,0.0,-999.0,73,0.00,,,0.00,MetarLogicWeatherSta,2013-01-15 04:11:00,
2013-01-14 23:16:00,28.0,20.8,30.33,SSW,202,0.0,-999.0,74,0.00,,,0.00,MetarLogicWeatherSta,2013-01-15 04:16:00,
2013-01-14 23:21:00,27.9,20.7,30.32,SW,225,0.0,-999.0,74,0.00,,,0.00,MetarLogicWeatherSta,2013-01-15 04:21:00,
2013-01-14 23:26:00,27.8,20.8,30.32,SSW,202,0.0,-999.0,74,0.00,,,0.00,MetarLogicWeatherSta,2013-01-15 04:26:00,
2013-01-14 23:31:00,27.9,20.6,30.32,SSW,202,0.0,-999.0,73,0.00,,,0.00,MetarLogicWeatherSta,2013-01-15 04:31:00,
2013-01-14 23:36:00,27.7,20.6,30.32,South,180,0.0,-999.0,74,0.00,,,0.00,MetarLogicWeatherSta,2013-01-15 04:36:00,
2013-01-14 23:41:00,27.7,20.3,30.32,SSW,202,0.0,-999.0,73,0.00,,,0.00,MetarLogicWeatherSta,2013-01-15 04:41:00,
2013-01-14 23:46:00,27.5,20.2,30.32,South,180,0.0,-999.0,73,0.00,,,0.00,MetarLogicWeatherSta,2013-01-15 04:46:00,
2013-01-14 23:51:00,27.6,20.7,30.32,South,180,0.0,-999.0,75,0.00,,,0.00,MetarLogicWeatherSta,2013-01-15 04:51:00,
2013-01-14 23:56:00,27.5,20.5,30.33,SSW,202,0.0,-999.0,74,0.00,,,0.00,MetarLogicWeatherSta,2013-01-15 04:56:00,